Fort Yukon Airport Fort Yukon US
ICAO: PFYU
IATA:
Category: Medium
Scheduled Services:

Elevation: 433 ft
TransAlt. 18000 ft.

Airport Communications:
AWOS 3:125.8
ANCHORAGE CNTR:135
CTAF:122.5
FAIRBANKS RDO:122.1
EIELSON RANGE CON:125.3
TWEB:114.4

PFYU Zoom In..

If you have problems with the map follow the link
https://www.worldairports.se/pages/airport.php?
ICAO=PFYU

Runways:

(A) RW 04 length 5000 ft width 100 ft
---- / hdg 35

(B) RW 22 length 5000 ft width 100 ft
---- / hdg 215

Location; PFYU
Day. 17 / Time. 01.56 Zulu
* Altimeter: 30.21
* Temperature: -24° c. 11.2°f.
* Wind from: 000° Speed 00 kn.
Dewpoint: -27° c.
Visibility: 10 Statute Miles.
Clouds: Scattered 9000 ft.

PFYU 170156Z 00000KT 10SM SCT090 M24/M27 A3021 RMK AO2 SLP258 T12441267


Wind - Calm.

 
 
jpsmedia.com for Web Design worldairports.se 2018   terms of use